Latest Coastal Weather Observations for Coolangatta (QLD)

IDN60701

Issued at 7:42 am EDT Tuesday 3 March 2015 (issued every 10 minutes, with the page automatically refreshed every 10 minutes)

About coastal observations | Map of coastal stations | Coastal observations for NSW | Marine services | Other Formats
Station Details ID: 040717 Name: COOLANGATTA Lat: -28.17 Lon: 153.51 Height: 4.0 m
Data from the previous 72 hours. | See also: Recent months at Coolangatta (QLD)
Date/Time
EDT
Temp

°C
Wind Pressure Rain
since 9am
mm
Weather Cloud Vis
km
Sea
Height
m
Swell
Dir
 
Speed
knots
Gust
knots
hPa Trend Height
m
Period
s
Dir
03/07:30am 22.5 SSW 6 8 1015.1 - 0.2 - - 10 - - - -
03/07:00am 21.5 SSW 5 7 1014.8 - 0.2 - - 10 - - - -
03/06:30am 21.5 SSW 6 7 1014.5 - 0.2 - - 10 - - - -
03/06:00am 21.8 SSW 7 8 1014.4 - 0.2 - - 10 - - - -
03/05:30am 21.9 SSW 7 8 1014.2 - 0.2 - - 10 - - - -
03/05:00am 22.2 SSW 5 7 1014.0 - 0.2 - Partly cloudy 10 - - - -
03/04:30am 22.5 SSW 6 9 1014.0 - 0.2 - Partly cloudy 10 - - - -
03/04:00am 22.4 SSW 6 11 1014.0 - 0.2 - Cloudy 10 - - - -
03/03:30am 22.0 SSW 6 7 1014.0 - 0.2 - - 10 - - - -
03/03:00am 22.3 SSW 7 9 1014.1 - 0.2 - Partly cloudy 10 - - - -
03/02:30am 22.7 SSW 6 9 1014.6 - 0.2 - Partly cloudy 10 - - - -
03/02:00am 22.5 SSW 7 10 1014.9 - 0.2 - Partly cloudy 10 - - - -
03/01:30am 22.6 SSW 7 8 1015.0 - 0.2 - - 10 - - - -
03/01:00am 22.6 S 7 10 1015.3 - 0.2 - - 10 - - - -
03/12:30am 23.0 SSW 7 10 1015.5 - 0.2 - Partly cloudy 10 - - - -
03/12:00am 23.0 SSW 8 11 1015.5 - 0.2 - Partly cloudy 10 - - - -
 
Date/Time
EDT
Temp

°C
Wind Pressure Rain
since 9am
mm
Weather Cloud Vis
km
Sea
Height
m
Swell
Dir
 
Speed
knots
Gust
knots
hPa Trend Height
m
Period
s
Dir
02/11:30pm 22.3 S 5 8 1015.6 - 0.2 - Partly cloudy 10 - - - -
02/11:00pm 22.8 SSW 7 10 1015.4 - 0.2 - Partly cloudy 10 - - - -
02/10:30pm 22.8 SSW 8 11 1015.6 - 0.2 - - 10 - - - -
02/10:00pm 22.8 S 9 11 1015.4 - 0.2 - - 10 - - - -
02/09:30pm 22.8 SSW 9 11 1015.4 - 0.2 - Partly cloudy 10 - - - -
02/09:00pm 23.2 SSW 8 14 1015.1 - 0.2 - Partly cloudy 10 - - - -
02/08:30pm 23.3 SSW 9 13 1014.6 - 0.2 - Partly cloudy 10 - - - -
02/08:00pm 24.0 SSW 11 17 1014.2 - 0.2 - Partly cloudy 10 - - - -
02/07:30pm 24.3 S 11 15 1013.8 - 0.2 - Partly cloudy 10 - - - -
02/07:00pm 24.7 S 10 14 1013.6 - 0.2 - Mostly cloudy 10 - - - -
02/06:30pm 25.3 S 11 16 1013.2 - 0.2 - Partly cloudy 10 - - - -
02/06:00pm 24.7 S 13 20 1012.9 - 0.2 - Partly cloudy 10 - - - -
02/05:30pm 25.9 SSE 12 17 1012.7 - 0.2 - Partly cloudy 10 - - - -
02/05:04pm 26.7 SSE 15 25 1012.5 - 0.2 - Partly cloudy 10 - - - -
02/05:00pm 26.7 SSE 14 23 1012.4 - 0.2 - Partly cloudy 10 - - - -
02/04:43pm 27.2 SSE 15 25 1012.3 - 0.2 - Partly cloudy 10 - - - -
02/04:30pm 27.2 SSE 18 24 1012.2 - 0.2 - - 10 - - - -
02/04:03pm 27.7 SSE 16 26 1012.0 - 0.2 - Partly cloudy 10 - - - -
02/04:00pm 27.8 SSE 16 23 1012.1 - 0.2 - Mostly clear 10 - - - -
02/03:30pm 28.2 SSE 15 23 1012.3 - 0.2 - Partly cloudy 10 - - - -
02/03:00pm 28.3 SE 20 27 1012.4 - 0.2 - Partly cloudy 10 - - - -
02/02:30pm 28.0 SE 19 24 1012.7 - 0.2 - Partly cloudy 10 - - - -
02/02:03pm 28.9 SSE 16 26 1012.8 - 0.2 - - 10 - - - -
02/02:00pm 28.7 SSE 18 26 1012.8 - 0.2 - Partly cloudy 10 - - - -
02/01:30pm 28.7 SSE 18 25 1013.0 - 0.2 - Partly cloudy 10 - - - -
02/01:00pm 29.0 S 14 20 1013.2 - 0.2 - Mostly clear 10 - - - -
02/12:30pm 29.0 SSE 16 26 1013.4 - 0.2 - Partly cloudy 10 - - - -
02/12:29pm 28.9 SSE 16 26 1013.4 - 0.2 - Partly cloudy 10 - - - -
02/12:00pm 28.0 SSE 14 19 1013.7 - 0.2 - Partly cloudy 10 - - - -
02/11:30am 28.3 S 13 18 1013.7 - 0.0 - Partly cloudy 10 - - - -
02/11:00am 26.4 S 14 19 1013.7 - 0.0 - Partly cloudy 10 - - - -
02/10:30am 25.9 S 13 17 1013.8 - 0.0 - Partly cloudy 10 - - - -
02/10:00am 26.6 S 12 19 1013.6 - 0.4 - Cloudy 10 - - - -
02/09:30am 26.2 S 12 18 1013.3 - 0.4 - Partly cloudy 10 - - - -
02/09:00am 25.2 S 11 17 1012.8 - 0.4 - Partly cloudy 10 - - - -
02/08:30am 25.2 S 8 13 1012.4 - 0.4 - - 10 - - - -
02/08:00am 24.3 S 8 11 1012.0 - 0.4 - - 10 - - - -
02/07:30am 23.4 SSW 6 9 1011.6 - 0.4 - - 10 - - - -
02/07:00am 22.9 SSW 6 8 1011.7 - 0.4 - Partly cloudy 10 - - - -
02/06:30am 23.0 SSW 7 9 1011.7 - 0.4 - Partly cloudy 10 - - - -
02/06:00am 22.9 SSW 5 7 1011.5 - 0.4 - Partly cloudy 10 - - - -
02/05:30am 22.7 SSW 5 7 1010.8 - 0.4 - Partly cloudy 10 - - - -
02/05:00am 22.4 SSW 5 5 1010.3 - 0.4 - Partly cloudy 10 - - - -
02/04:30am 22.7 SSW 4 6 1010.2 - 0.4 - Partly cloudy 10 - - - -
02/04:00am 22.4 SW 4 5 1010.0 - 0.4 - Mostly clear 10 - - - -
02/03:30am 22.5 SW 3 5 1010.1 - 0.4 - Partly cloudy 10 - - - -
02/03:00am 22.7 S 4 4 1010.1 - 0.4 - Partly cloudy 10 - - - -
02/02:30am 22.8 CALM 0 0 1010.1 - 0.4 - Cloudy 10 - - - -
02/02:00am 22.7 CALM 0 0 1010.0 - 0.4 - Partly cloudy 10 - - - -
02/01:30am 22.7 WSW 4 5 1010.2 - 0.4 - - 10 - - - -
02/01:00am 23.1 WSW 5 5 1010.5 - 0.4 - - 10 - - - -
02/12:30am 23.4 W 5 6 1010.5 - 0.4 - Partly cloudy 10 - - - -
02/12:00am 24.4 WNW 4 4 1010.6 - 0.4 - Cloudy 10 - - - -
 
Date/Time
EDT
Temp

°C
Wind Pressure Rain
since 9am
mm
Weather Cloud Vis
km
Sea
Height
m
Swell
Dir
 
Speed
knots
Gust
knots
hPa Trend Height
m
Period
s
Dir
01/11:30pm 25.0 N 7 10 1010.8 - 0.4 - Partly cloudy 10 - - - -
01/11:00pm 25.1 N 7 10 1010.4 - 0.4 - Cloudy 10 - - - -
01/10:30pm 24.9 N 7 10 1010.4 - 0.4 - Partly cloudy 10 - - - -
01/10:00pm 24.3 NNW 8 11 1009.6 - 0.4 Recent precip. Cloudy 10 - - - -
01/09:30pm 25.5 N 9 11 1009.8 - 0.0 - Partly cloudy 10 - - - -
01/09:00pm 25.7 N 8 9 1010.0 - 0.0 - Partly cloudy 10 - - - -
01/08:30pm 25.9 N 9 11 1009.5 - 0.0 - Partly cloudy 10 - - - -
01/08:00pm 25.8 N 9 11 1009.1 - 0.0 - Partly cloudy 10 - - - -
01/07:30pm 25.8 N 9 11 1008.7 - 0.0 - Partly cloudy 10 - - - -
01/07:00pm 25.9 N 9 11 1008.6 - 0.0 - Partly cloudy 10 - - - -
01/06:30pm 26.4 N 10 13 1008.3 - 0.0 - - 10 - - - -
01/06:00pm 27.1 NNE 10 13 1008.2 - 0.0 - - 10 - - - -
01/05:30pm 27.0 N 11 13 1008.0 - 0.0 - - 10 - - - -
01/05:00pm 27.2 NNE 11 14 1007.8 - 0.0 - - 10 - - - -
01/04:30pm 27.1 NNE 12 15 1007.9 - 0.0 - - 10 - - - -
01/04:00pm 27.5 NNE 11 14 1008.2 - 0.0 - - 10 - - - -
01/03:30pm 27.9 NNE 11 14 1008.4 - 0.0 - - 10 - - - -
01/03:00pm 27.9 NNE 11 13 1008.8 - 0.0 - - 10 - - - -
01/02:30pm 27.7 NNE 11 14 1008.9 - 0.0 - - 10 - - - -
01/02:00pm 28.0 NNE 11 15 1009.2 - 0.0 - - 10 - - - -
01/01:30pm 28.1 NNE 11 13 1009.5 - 0.0 - - 10 - - - -
01/01:00pm 28.1 NNE 10 14 1009.8 - 0.0 - - 10 - - - -
01/12:30pm 27.6 NNE 10 12 1010.2 - 0.0 - - 10 - - - -
01/12:00pm 27.4 NNE 10 12 1010.6 - 0.0 - - 10 - - - -
01/11:30am 27.4 NNE 9 12 1011.0 - 0.0 - - 10 - - - -
01/11:00am 27.8 N 9 11 1011.1 - 0.0 - - 10 - - - -
01/10:30am 27.1 N 9 11 1011.1 - 0.0 - - 10 - - - -
01/10:00am 26.7 NNE 8 10 1011.1 - 0.2 - - 10 - - - -
01/09:30am 26.3 NNW 6 8 1011.1 - 0.2 - Partly cloudy 10 - - - -
01/09:00am 25.6 NW 4 6 1011.0 - 0.2 - Partly cloudy 10 - - - -
01/08:30am 23.6 SSW 1 3 1010.8 - 0.2 - Partly cloudy 10 - - - -
01/08:00am 22.4 WSW 5 5 1010.7 - 0.2 - - 10 - - - -
01/07:30am 21.8 WSW 4 6 1010.6 - 0.2 - - 10 - - - -
01/07:00am 21.7 CALM 0 0 1010.3 - 0.2 - Mostly clear 10 - - - -
01/06:30am 21.8 SSW 2 4 1010.2 - 0.2 - Partly cloudy 10 - - - -
01/06:00am 22.1 WSW 3 5 1010.1 - 0.2 - Partly cloudy 10 - - - -
01/05:30am 22.2 SW 1 5 1009.7 - 0.2 - Partly cloudy 10 - - - -
01/05:00am 22.1 WSW 3 5 1009.6 - 0.2 - Partly cloudy 10 - - - -
01/04:30am 22.4 SW 1 4 1009.7 - 0.2 - Partly cloudy 10 - - - -
01/04:00am 22.5 WSW 4 5 1009.8 - 0.2 - Cloudy 10 - - - -
01/03:30am 22.5 SW 5 7 1009.9 - 0.2 - Partly cloudy 10 - - - -
01/03:00am 22.4 WSW 2 4 1010.0 - 0.2 - Partly cloudy 10 - - - -
01/02:30am 22.6 W 2 5 1010.3 - 0.2 - Partly cloudy 10 - - - -
01/02:00am 22.6 SSW 1 4 1010.6 - 0.2 - Partly cloudy 10 - - - -
01/01:30am 22.6 SW 2 5 1011.0 - 0.2 - Partly cloudy 10 - - - -
01/01:00am 22.7 SW 3 5 1011.2 - 0.2 - Cloudy 10 - - - -
01/12:30am 22.4 WSW 5 7 1011.5 - 0.2 - Partly cloudy 10 - - - -
01/12:00am 22.4 W 4 6 1011.5 - 0.2 - Partly cloudy 10 - - - -
 
Date/Time
EDT
Temp

°C
Wind Pressure Rain
since 9am
mm
Weather Cloud Vis
km
Sea
Height
m
Swell
Dir
 
Speed
knots
Gust
knots
hPa Trend Height
m
Period
s
Dir
28/11:30pm 22.9 W 3 6 1011.6 - 0.2 - Partly cloudy 10 - - - -
28/11:00pm 23.6 NNW 5 8 1011.8 - 0.2 - Partly cloudy 10 - - - -
28/10:30pm 25.1 NE 7 9 1011.7 - 0.2 - - 10 - - - -
28/10:00pm 25.2 NE 7 9 1011.6 - 0.2 - Partly cloudy 10 - - - -
28/09:30pm 25.3 NE 8 11 1011.6 - 0.2 - Partly cloudy 10 - - - -
28/09:00pm 25.3 NE 7 10 1011.3 - 0.2 - Partly cloudy 10 - - - -
28/08:30pm 25.3 NE 8 11 1011.0 - 0.2 - Partly cloudy 10 - - - -
28/08:00pm 25.4 NE 8 11 1010.6 - 0.2 - Partly cloudy 10 - - - -
28/07:30pm 25.5 NNE 8 10 1010.3 - 0.2 - Partly cloudy 10 - - - -
28/07:00pm 25.6 NE 9 12 1009.8 - 0.2 - - 10 - - - -
28/06:30pm 26.1 NE 8 11 1009.8 - 0.2 - - 10 - - - -
28/06:00pm 25.9 NE 9 13 1009.6 - 0.2 - Partly cloudy 10 - - - -
28/05:30pm 26.8 NE 10 13 1009.5 - 0.2 - Partly cloudy 10 - - - -
28/05:00pm 26.8 NE 11 14 1009.6 - 0.2 - Partly cloudy 10 - - - -
28/04:30pm 27.3 NE 10 12 1009.5 - 0.2 - Partly cloudy 10 - - - -
28/04:00pm 26.7 NE 9 13 1009.7 - 0.2 - Mostly clear 10 - - - -
28/03:30pm 26.7 ENE 11 13 1009.6 - 0.2 - Partly cloudy 10 - - - -
28/03:00pm 27.1 NE 11 13 1009.8 - 0.2 - - 10 - - - -
28/02:30pm 27.2 NE 11 13 1010.0 - 0.2 - - 10 - - - -
28/02:00pm 27.1 ENE 11 14 1010.2 - 0.2 - - 10 - - - -
28/01:30pm 26.9 ENE 11 14 1010.7 - 0.2 - - 10 - - - -
28/01:00pm 27.2 ENE 11 14 1010.8 - 0.2 - Mostly clear 10 - - - -
28/12:30pm 27.1 ENE 9 12 1011.0 - 0.2 - - 10 - - - -
28/12:00pm 26.8 NE 9 12 1011.2 - 0.2 - - 10 - - - -
28/11:30am 27.0 ENE 7 9 1011.3 - 0.2 - - 10 - - - -
28/11:00am 26.4 NE 8 11 1011.6 - 0.2 - - 10 - - - -
28/10:30am 26.3 NNE 7 9 1011.6 - 0.2 - - 10 - - - -
28/10:00am 26.4 NNE 5 7 1011.5 - 45.4 - Mostly clear 10 - - - -
28/09:30am 25.7 W 1 3 1011.4 - 45.4 - - 10 - - - -
28/09:00am 24.7 SSW 1 3 1011.2 - 45.4 - - 10 - - - -

Other Formats:

Comma delimited format used in spreadsheet applications
http://www.bom.gov.au/fwo/IDN60701/IDN60701.94592.axf

JavaScript Object Notation format (JSON) in row-major order
http://www.bom.gov.au/fwo/IDN60701/IDN60701.94592.json